Time;durP1;ratioP1;P1;durP2;ratioP2;P2;SDS_P1;SDS_P2;PMS_P1;PMS_P2;Temp;Humidity;BMP_temperature;BMP_pressure;BME280_temperature;BME280_humidity;BME280_pressure;Samples;Min_cycle;Max_cycle;Signal;HPM_P1;HPM_P2
2023/09/27 00:03:56;;;;;;;8.40;3.67;;;;;;;;;;10458202;28;20321;-73
2023/09/27 00:08:57;;;;;;;10.00;4.75;;;;;;;;;;10471335;28;20356;-72
2023/09/27 00:13:57;;;;;;;14.32;4.72;;;;;;;;;;10457465;28;20020;-72
2023/09/27 00:18:57;;;;;;;9.75;4.05;;;;;;;;;;10457051;28;20384;-72
2023/09/27 00:23:58;;;;;;;14.45;4.38;;;;;;;;;;10457461;28;20047;-73
2023/09/27 00:28:58;;;;;;;14.07;4.50;;;;;;;;;;10456733;28;20080;-74
2023/09/27 00:33:58;;;;;;;13.50;4.72;;;;;;;;;;10456826;28;20265;-73
2023/09/27 00:38:58;;;;;;;12.93;5.43;;;;;;;;;;10457018;28;20043;-72
2023/09/27 00:43:59;;;;;;;9.88;4.88;;;;;;;;;;10451862;28;20094;-73
2023/09/27 00:48:59;;;;;;;14.75;4.43;;;;;;;;;;10456524;28;20334;-73
2023/09/27 00:53:59;;;;;;;11.02;4.28;;;;;;;;;;10454947;28;20043;-73
2023/09/27 00:59:00;;;;;;;14.40;3.93;;;;;;;;;;10454755;28;20059;-74
2023/09/27 01:04:01;;;;;;;16.35;3.92;;;;;;;;;;10455810;28;20084;-73
2023/09/27 01:09:03;;;;;;;12.77;4.85;;;;;;;;;;10454300;28;20360;-73
2023/09/27 01:14:03;;;;;;;14.50;4.93;;;;;;;;;;10457471;28;20088;-73
2023/09/27 01:19:03;;;;;;;13.07;4.65;;;;;;;;;;10454319;28;20235;-74
2023/09/27 01:24:04;;;;;;;18.85;4.28;;;;;;;;;;10455216;28;20075;-71
2023/09/27 01:29:04;;;;;;;12.98;4.10;;;;;;;;;;10443226;28;20278;-72
2023/09/27 01:34:04;;;;;;;9.90;4.03;;;;;;;;;;10436186;28;20039;-72
2023/09/27 01:39:07;;;;;;;15.65;5.43;;;;;;;;;;10440332;28;20059;-72
2023/09/27 01:44:07;;;;;;;14.60;4.30;;;;;;;;;;10442186;28;20027;-74
2023/09/27 01:49:07;;;;;;;12.43;5.35;;;;;;;;;;10452056;28;20032;-72
2023/09/27 01:54:07;;;;;;;7.75;3.80;;;;;;;;;;10446283;28;20033;-73
2023/09/27 01:59:08;;;;;;;9.68;4.57;;;;;;;;;;10448524;28;20021;-73
2023/09/27 02:04:08;;;;;;;15.93;4.20;;;;;;;;;;10434455;28;20104;-74
2023/09/27 02:09:09;;;;;;;14.10;5.03;;;;;;;;;;10426410;28;20082;-73
2023/09/27 02:14:09;;;;;;;21.50;5.07;;;;;;;;;;10440704;28;20113;-73
2023/09/27 02:19:09;;;;;;;8.30;4.93;;;;;;;;;;10449929;28;20629;-73
2023/09/27 02:24:10;;;;;;;10.27;4.63;;;;;;;;;;10442576;28;20044;-74
2023/09/27 02:29:10;;;;;;;11.00;4.20;;;;;;;;;;10447533;28;20067;-74
2023/09/27 02:34:12;;;;;;;19.40;3.90;;;;;;;;;;10448472;28;20283;-73
2023/09/27 02:39:12;;;;;;;20.33;3.60;;;;;;;;;;10433590;28;20188;-74
2023/09/27 02:44:12;;;;;;;15.70;4.25;;;;;;;;;;10459483;28;20013;-74
2023/09/27 02:49:13;;;;;;;14.13;4.45;;;;;;;;;;10458964;28;20336;-74
2023/09/27 02:54:14;;;;;;;13.02;4.82;;;;;;;;;;10455582;28;20487;-73
2023/09/27 02:59:14;;;;;;;12.23;4.38;;;;;;;;;;10459142;28;20131;-73
2023/09/27 03:04:17;;;;;;;12.75;3.85;;;;;;;;;;10461052;28;20092;-73
2023/09/27 03:09:18;;;;;;;14.45;4.43;;;;;;;;;;10459032;28;20342;-71
2023/09/27 03:14:18;;;;;;;12.20;4.57;;;;;;;;;;10457497;28;20074;-73
2023/09/27 03:19:20;;;;;;;10.50;3.78;;;;;;;;;;10457078;28;20393;-72
2023/09/27 03:24:21;;;;;;;11.57;4.60;;;;;;;;;;10456824;28;20077;-73
2023/09/27 03:29:21;;;;;;;12.52;4.53;;;;;;;;;;10473886;28;20071;-73
2023/09/27 03:34:21;;;;;;;8.48;4.22;;;;;;;;;;10472016;28;20238;-74
2023/09/27 03:39:22;;;;;;;9.27;3.95;;;;;;;;;;10455900;28;20079;-73
2023/09/27 03:44:23;;;;;;;6.57;4.10;;;;;;;;;;10457109;28;20009;-73
2023/09/27 03:49:24;;;;;;;11.82;3.80;;;;;;;;;;10449909;28;20036;-73
2023/09/27 03:54:24;;;;;;;9.73;4.10;;;;;;;;;;10440473;28;20117;-74
2023/09/27 03:59:24;;;;;;;9.85;4.18;;;;;;;;;;10427052;28;20096;-73
2023/09/27 04:04:25;;;;;;;15.57;5.60;;;;;;;;;;10442614;28;20033;-73
2023/09/27 04:09:25;;;;;;;11.98;3.92;;;;;;;;;;10444258;28;20086;-73
2023/09/27 04:14:25;;;;;;;14.37;5.00;;;;;;;;;;10436643;28;20036;-74
2023/09/27 04:19:25;;;;;;;11.02;4.78;;;;;;;;;;10453836;28;20044;-71
2023/09/27 04:24:27;;;;;;;12.93;6.00;;;;;;;;;;10449892;28;20036;-71
2023/09/27 04:29:27;;;;;;;10.50;4.78;;;;;;;;;;10452629;28;20021;-72
2023/09/27 04:34:28;;;;;;;11.32;4.70;;;;;;;;;;10464542;28;20349;-70
2023/09/27 04:39:31;;;;;;;17.20;4.78;;;;;;;;;;10466941;28;20027;-71
2023/09/27 04:44:31;;;;;;;20.27;4.55;;;;;;;;;;10476304;28;20321;-70
2023/09/27 04:49:31;;;;;;;14.15;4.55;;;;;;;;;;10465842;28;20039;-70
2023/09/27 04:54:31;;;;;;;13.00;5.05;;;;;;;;;;10465456;28;20328;-70
2023/09/27 04:59:32;;;;;;;20.77;6.28;;;;;;;;;;10464450;28;20122;-70
2023/09/27 05:04:32;;;;;;;11.50;4.93;;;;;;;;;;10459912;28;20004;-72
2023/09/27 05:09:32;;;;;;;17.40;4.93;;;;;;;;;;10461239;28;20021;-72
2023/09/27 05:14:33;;;;;;;12.07;5.13;;;;;;;;;;10454411;28;20054;-73
2023/09/27 05:19:33;;;;;;;17.53;5.00;;;;;;;;;;10470272;28;20053;-71
2023/09/27 05:24:38;;;;;;;20.10;5.25;;;;;;;;;;10463568;28;20196;-71
2023/09/27 05:29:39;;;;;;;13.55;5.25;;;;;;;;;;10463252;28;20207;-72
2023/09/27 05:34:39;;;;;;;15.90;4.47;;;;;;;;;;10458513;28;20023;-71
2023/09/27 05:39:39;;;;;;;12.35;5.05;;;;;;;;;;10461081;28;20103;-72
2023/09/27 05:44:40;;;;;;;10.95;5.28;;;;;;;;;;10462383;28;20525;-71
2023/09/27 05:49:41;;;;;;;18.20;5.15;;;;;;;;;;10458750;28;20009;-71
2023/09/27 05:54:41;;;;;;;11.27;4.65;;;;;;;;;;10459956;28;20108;-70
2023/09/27 05:59:44;;;;;;;13.87;4.70;;;;;;;;;;10456102;28;20024;-71
2023/09/27 06:04:45;;;;;;;9.23;4.30;;;;;;;;;;10479234;28;20025;-71
2023/09/27 06:09:46;;;;;;;10.52;4.72;;;;;;;;;;10475178;28;20048;-71
2023/09/27 06:14:46;;;;;;;15.70;5.30;;;;;;;;;;10459134;28;20020;-70
2023/09/27 06:19:48;;;;;;;9.23;4.20;;;;;;;;;;10474748;28;20113;-71
2023/09/27 06:24:49;;;;;;;25.65;4.95;;;;;;;;;;10467181;28;20036;-70
2023/09/27 06:29:49;;;;;;;11.57;3.90;;;;;;;;;;10462704;28;20020;-70
2023/09/27 06:34:52;;;;;;;7.65;3.88;;;;;;;;;;10460886;28;20286;-71
2023/09/27 06:39:52;;;;;;;14.32;4.78;;;;;;;;;;10456840;28;20019;-71
2023/09/27 06:44:52;;;;;;;6.87;3.23;;;;;;;;;;10453079;28;20025;-71
2023/09/27 06:49:54;;;;;;;20.37;4.43;;;;;;;;;;10458085;28;20194;-71
2023/09/27 06:54:54;;;;;;;7.03;3.13;;;;;;;;;;10459265;28;20032;-71
2023/09/27 06:59:54;;;;;;;5.80;3.10;;;;;;;;;;10464481;28;20238;-71
2023/09/27 07:04:54;;;;;;;13.18;4.50;;;;;;;;;;10468586;28;20036;-70
2023/09/27 07:09:55;;;;;;;9.77;3.22;;;;;;;;;;10461249;28;20016;-70
2023/09/27 07:14:57;;;;;;;49.40;6.10;;;;;;;;;;10457962;28;20178;-70
2023/09/27 07:19:57;;;;;;;11.27;3.25;;;;;;;;;;10488464;28;20131;-69
2023/09/27 07:24:58;;;;;;;11.90;3.72;;;;;;;;;;10515967;28;20252;-69
2023/09/27 07:29:58;;;;;;;18.27;5.45;;;;;;;;;;10511661;28;20156;-70
2023/09/27 07:34:58;;;;;;;7.72;3.08;;;;;;;;;;10501199;28;20270;-70
2023/09/27 07:39:59;;;;;;;9.40;3.20;;;;;;;;;;10507519;28;20058;-70
2023/09/27 07:44:59;;;;;;;10.00;3.30;;;;;;;;;;10496206;28;20524;-70
2023/09/27 07:49:59;;;;;;;12.77;3.25;;;;;;;;;;10502817;28;20027;-71
2023/09/27 07:54:59;;;;;;;13.68;3.22;;;;;;;;;;10512224;28;20383;-71
2023/09/27 08:00:00;;;;;;;10.55;3.33;;;;;;;;;;10503333;28;20024;-70
2023/09/27 08:05:09;;;;;;;10.07;3.20;;;;;;;;;;10508583;28;20024;-70
2023/09/27 08:10:10;;;;;;;11.45;3.00;;;;;;;;;;10507957;28;20050;-70
2023/09/27 08:15:12;;;;;;;8.65;2.67;;;;;;;;;;10500881;28;20326;-70
2023/09/27 08:20:12;;;;;;;7.93;2.92;;;;;;;;;;10509325;28;20052;-70
2023/09/27 08:25:16;;;;;;;6.80;2.60;;;;;;;;;;10508657;28;20034;-70
2023/09/27 08:30:16;;;;;;;8.52;3.15;;;;;;;;;;10508866;28;20332;-71
2023/09/27 08:35:17;;;;;;;14.47;3.50;;;;;;;;;;10521394;28;20020;-71
2023/09/27 08:40:17;;;;;;;7.27;2.90;;;;;;;;;;10510387;28;20016;-71
2023/09/27 08:45:19;;;;;;;7.38;2.70;;;;;;;;;;10508320;28;20328;-69
2023/09/27 08:50:20;;;;;;;11.68;3.45;;;;;;;;;;10492136;28;20035;-70
2023/09/27 08:55:20;;;;;;;10.00;2.70;;;;;;;;;;10508771;28;20021;-70
2023/09/27 09:00:22;;;;;;;10.07;2.87;;;;;;;;;;10508092;28;20028;-70
2023/09/27 09:05:23;;;;;;;9.85;3.13;;;;;;;;;;10510272;28;20232;-69
2023/09/27 09:10:23;;;;;;;13.07;3.17;;;;;;;;;;10502930;28;20062;-71
2023/09/27 09:15:26;;;;;;;14.87;3.20;;;;;;;;;;10505365;28;20175;-70
2023/09/27 09:20:28;;;;;;;4.47;2.15;;;;;;;;;;10519246;28;20356;-70
2023/09/27 09:25:29;;;;;;;11.93;2.45;;;;;;;;;;10502813;28;20009;-70
2023/09/27 09:30:39;;;;;;;8.65;2.30;;;;;;;;;;10511303;28;20024;-70
2023/09/27 09:35:40;;;;;;;11.25;2.90;;;;;;;;;;10498207;28;20065;-70
2023/09/27 09:40:50;;;;;;;8.27;2.67;;;;;;;;;;10496321;28;20042;-70
2023/09/27 09:45:51;;;;;;;7.93;2.90;;;;;;;;;;10509060;28;20222;-70
2023/09/27 09:50:51;;;;;;;6.77;2.27;;;;;;;;;;10508640;28;20016;-69
2023/09/27 09:55:52;;;;;;;6.27;2.40;;;;;;;;;;10501580;28;20019;-70
2023/09/27 10:00:53;;;;;;;11.93;3.75;;;;;;;;;;10498982;28;20277;-69
2023/09/27 10:05:54;;;;;;;26.90;3.72;;;;;;;;;;10498351;28;20008;-70
2023/09/27 10:10:55;;;;;;;8.25;3.20;;;;;;;;;;10498912;28;20021;-70
2023/09/27 10:15:55;;;;;;;11.00;3.10;;;;;;;;;;10501085;28;20026;-69
2023/09/27 10:21:02;;;;;;;12.70;2.50;;;;;;;;;;10505121;28;20095;-70
2023/09/27 10:26:23;;;;;;;7.75;2.80;;;;;;;;;;10503577;28;20401;-70
2023/09/27 10:31:23;;;;;;;9.00;2.22;;;;;;;;;;10495520;28;20488;-70
2023/09/27 10:36:23;;;;;;;7.97;2.53;;;;;;;;;;10506964;28;20052;-69
2023/09/27 10:41:33;;;;;;;10.38;2.33;;;;;;;;;;10496768;28;20119;-70
2023/09/27 10:46:42;;;;;;;6.07;2.40;;;;;;;;;;10510538;28;20016;-70
2023/09/27 10:51:43;;;;;;;10.10;2.40;;;;;;;;;;10502915;28;20028;-71
2023/09/27 10:56:52;;;;;;;7.30;2.38;;;;;;;;;;10509091;28;20033;-70
2023/09/27 11:01:53;;;;;;;12.35;2.38;;;;;;;;;;10513573;28;20088;-70
2023/09/27 11:06:54;;;;;;;10.57;2.60;;;;;;;;;;10492330;28;20024;-70
2023/09/27 11:11:55;;;;;;;5.80;2.13;;;;;;;;;;10518155;28;20035;-70
2023/09/27 11:16:55;;;;;;;8.63;2.13;;;;;;;;;;10516437;28;20329;-70
2023/09/27 11:21:55;;;;;;;4.47;2.03;;;;;;;;;;10512030;28;20067;-69
2023/09/27 11:26:57;;;;;;;10.90;2.90;;;;;;;;;;10511923;28;20004;-69
2023/09/27 11:31:57;;;;;;;6.25;2.95;;;;;;;;;;10509864;28;20024;-70
2023/09/27 11:36:57;;;;;;;11.63;3.20;;;;;;;;;;10515554;28;20123;-70
2023/09/27 11:41:58;;;;;;;11.77;3.17;;;;;;;;;;10518588;28;20019;-70
2023/09/27 11:47:03;;;;;;;11.77;3.15;;;;;;;;;;10507761;28;20341;-70
2023/09/27 11:52:10;;;;;;;12.00;4.05;;;;;;;;;;10509679;28;20024;-70
2023/09/27 11:57:10;;;;;;;11.20;4.35;;;;;;;;;;10504891;28;20024;-71
2023/09/27 12:02:10;;;;;;;18.02;4.90;;;;;;;;;;10501982;28;20314;-69
2023/09/27 12:07:12;;;;;;;8.13;3.20;;;;;;;;;;10513142;28;20310;-69
2023/09/27 12:12:12;;;;;;;18.63;3.20;;;;;;;;;;10511223;28;20024;-69
2023/09/27 12:17:12;;;;;;;14.35;4.28;;;;;;;;;;10506778;28;20024;-69
2023/09/27 12:22:13;;;;;;;12.90;3.53;;;;;;;;;;10502865;28;20071;-69
2023/09/27 12:27:13;;;;;;;9.33;3.70;;;;;;;;;;10502966;28;20313;-71
2023/09/27 12:32:13;;;;;;;8.00;3.95;;;;;;;;;;10504020;28;20016;-71
2023/09/27 12:37:14;;;;;;;23.90;4.13;;;;;;;;;;10500089;28;20203;-69
2023/09/27 12:42:14;;;;;;;8.75;3.85;;;;;;;;;;10519842;28;20023;-70
2023/09/27 12:47:14;;;;;;;8.43;3.08;;;;;;;;;;10514062;28;20286;-69
2023/09/27 12:52:15;;;;;;;18.08;4.32;;;;;;;;;;10513106;28;20016;-70
2023/09/27 12:57:15;;;;;;;27.73;4.85;;;;;;;;;;10509144;28;20463;-70
2023/09/27 13:02:15;;;;;;;18.65;4.30;;;;;;;;;;10493120;28;20051;-69
2023/09/27 13:07:15;;;;;;;12.98;3.95;;;;;;;;;;10510689;28;20097;-69
2023/09/27 13:12:16;;;;;;;15.27;3.72;;;;;;;;;;10501311;28;20351;-69
2023/09/27 13:17:16;;;;;;;14.65;3.40;;;;;;;;;;10511848;28;20012;-71
2023/09/27 13:22:17;;;;;;;13.75;4.63;;;;;;;;;;10501584;28;20279;-70
2023/09/27 13:27:18;;;;;;;10.95;3.08;;;;;;;;;;10503593;28;20072;-70
2023/09/27 13:32:18;;;;;;;9.02;2.83;;;;;;;;;;10507457;28;20325;-71
2023/09/27 13:37:19;;;;;;;16.05;3.53;;;;;;;;;;10492262;28;20012;-70
2023/09/27 13:42:20;;;;;;;14.43;3.78;;;;;;;;;;10505694;28;20018;-70
2023/09/27 13:47:20;;;;;;;11.97;4.40;;;;;;;;;;10507956;28;20475;-70
2023/09/27 13:52:20;;;;;;;13.48;4.18;;;;;;;;;;10506859;28;20025;-70
2023/09/27 13:57:20;;;;;;;17.63;3.45;;;;;;;;;;10508685;28;20020;-70
2023/09/27 14:02:21;;;;;;;11.32;3.88;;;;;;;;;;10501808;28;20519;-71
2023/09/27 14:07:21;;;;;;;21.00;4.07;;;;;;;;;;10499878;28;20029;-71
2023/09/27 14:12:21;;;;;;;14.32;3.90;;;;;;;;;;10501683;28;20016;-70
2023/09/27 14:17:21;;;;;;;8.05;4.03;;;;;;;;;;10511684;28;20032;-70
2023/09/27 14:22:22;;;;;;;11.40;4.38;;;;;;;;;;10501800;28;20036;-70
2023/09/27 14:27:22;;;;;;;6.75;3.30;;;;;;;;;;10508687;28;20636;-70
2023/09/27 14:32:22;;;;;;;18.23;4.20;;;;;;;;;;10518101;28;20025;-71
2023/09/27 14:37:22;;;;;;;10.77;4.20;;;;;;;;;;10515605;28;20028;-69
2023/09/27 14:42:23;;;;;;;10.32;3.80;;;;;;;;;;10510017;28;20016;-71
2023/09/27 14:47:26;;;;;;;9.73;4.20;;;;;;;;;;10514093;28;20088;-71
2023/09/27 14:52:27;;;;;;;12.10;4.00;;;;;;;;;;10517597;28;20050;-70
2023/09/27 14:57:27;;;;;;;16.50;3.83;;;;;;;;;;10516593;28;20383;-70
2023/09/27 15:02:27;;;;;;;13.07;3.80;;;;;;;;;;10497810;28;20024;-70
2023/09/27 15:07:27;;;;;;;8.93;4.22;;;;;;;;;;10511135;28;21336;-71
2023/09/27 15:12:27;;;;;;;8.63;3.85;;;;;;;;;;10515249;28;20029;-71
2023/09/27 15:17:36;;;;;;;10.30;3.95;;;;;;;;;;10519504;28;20270;-69
2023/09/27 15:22:38;;;;;;;10.55;4.28;;;;;;;;;;10514837;28;20045;-70
2023/09/27 15:27:38;;;;;;;9.77;3.72;;;;;;;;;;10496833;28;20287;-69
2023/09/27 15:32:39;;;;;;;11.23;3.78;;;;;;;;;;10499054;28;20024;-68
2023/09/27 15:37:52;;;;;;;12.55;3.85;;;;;;;;;;10501959;28;20024;-70
2023/09/27 15:42:53;;;;;;;13.38;4.20;;;;;;;;;;10516531;28;20243;-78
2023/09/27 15:47:54;;;;;;;6.95;4.20;;;;;;;;;;10505827;28;20069;-76
2023/09/27 15:52:54;;;;;;;16.53;3.70;;;;;;;;;;10497806;28;20411;-76
2023/09/27 15:57:54;;;;;;;10.68;3.50;;;;;;;;;;10516419;28;20099;-82
2023/09/27 16:02:55;;;;;;;13.57;4.03;;;;;;;;;;10509884;28;20044;-70
2023/09/27 16:07:55;;;;;;;16.90;6.50;;;;;;;;;;10498645;28;20447;-80
2023/09/27 16:12:55;;;;;;;10.10;5.32;;;;;;;;;;10485374;28;20032;-71
2023/09/27 16:17:55;;;;;;;9.70;5.28;;;;;;;;;;10506645;28;20292;-71
2023/09/27 16:22:56;;;;;;;16.45;5.55;;;;;;;;;;10518519;28;20369;-80
2023/09/27 16:27:57;;;;;;;12.60;5.78;;;;;;;;;;10518373;28;20039;-82
2023/09/27 16:33:02;;;;;;;10.57;4.28;;;;;;;;;;10519026;28;20024;-85
2023/09/27 16:38:03;;;;;;;12.10;3.85;;;;;;;;;;10501346;28;20038;-87
2023/09/27 16:43:03;;;;;;;16.02;3.55;;;;;;;;;;10532854;28;20083;-86
2023/09/27 16:48:04;;;;;;;10.85;4.18;;;;;;;;;;10514601;28;20016;-70
2023/09/27 16:53:04;;;;;;;8.40;3.90;;;;;;;;;;10502805;28;20071;-72
2023/09/27 16:58:05;;;;;;;15.43;4.72;;;;;;;;;;10480143;28;20346;-76
2023/09/27 17:03:05;;;;;;;10.13;3.85;;;;;;;;;;10513236;28;20032;-72
2023/09/27 17:08:05;;;;;;;10.43;4.35;;;;;;;;;;10506945;28;20267;-71
2023/09/27 17:13:06;;;;;;;9.90;4.20;;;;;;;;;;10499665;28;20131;-70
2023/09/27 17:18:06;;;;;;;10.63;3.67;;;;;;;;;;10494027;28;20275;-70
2023/09/27 17:23:07;;;;;;;9.40;4.07;;;;;;;;;;10494024;28;20055;-73
2023/09/27 17:28:07;;;;;;;19.30;6.25;;;;;;;;;;10506704;28;20242;-74
2023/09/27 17:33:07;;;;;;;13.18;4.05;;;;;;;;;;10496480;28;20070;-71
2023/09/27 17:38:08;;;;;;;7.97;3.97;;;;;;;;;;10490240;28;20020;-73
2023/09/27 17:43:08;;;;;;;14.75;4.65;;;;;;;;;;10504083;28;20516;-71
2023/09/27 17:48:09;;;;;;;11.40;3.90;;;;;;;;;;10502707;28;20023;-69
2023/09/27 17:53:09;;;;;;;13.82;4.70;;;;;;;;;;10497946;28;20039;-70
2023/09/27 17:58:10;;;;;;;9.80;4.50;;;;;;;;;;10500127;28;20039;-71
2023/09/27 18:03:10;;;;;;;9.63;4.28;;;;;;;;;;10497994;28;20187;-81
2023/09/27 18:08:10;;;;;;;11.10;4.55;;;;;;;;;;10498088;28;20245;-80
2023/09/27 18:13:11;;;;;;;10.80;4.07;;;;;;;;;;10503847;28;20040;-84
2023/09/27 18:18:11;;;;;;;12.13;3.90;;;;;;;;;;10495420;28;20577;-74
2023/09/27 18:23:18;;;;;;;8.20;4.10;;;;;;;;;;10487402;28;20294;-76
2023/09/27 18:28:23;;;;;;;10.70;4.93;;;;;;;;;;10499296;28;20051;-72
2023/09/27 18:33:26;;;;;;;10.43;4.15;;;;;;;;;;10496447;28;20327;-75
2023/09/27 18:38:26;;;;;;;16.92;4.68;;;;;;;;;;10492554;28;20211;-73
2023/09/27 18:43:27;;;;;;;15.73;4.27;;;;;;;;;;10502364;28;20032;-76
2023/09/27 18:48:27;;;;;;;11.60;4.28;;;;;;;;;;10502178;28;20050;-78
2023/09/27 18:53:28;;;;;;;10.68;4.50;;;;;;;;;;10497324;28;20322;-73
2023/09/27 18:58:28;;;;;;;10.07;4.13;;;;;;;;;;10500134;28;20028;-72
2023/09/27 19:03:28;;;;;;;11.07;3.92;;;;;;;;;;10493939;28;20264;-72
2023/09/27 19:08:29;;;;;;;13.93;4.57;;;;;;;;;;10492496;28;20025;-73
2023/09/27 19:13:29;;;;;;;11.23;4.65;;;;;;;;;;10497010;28;20070;-72
2023/09/27 19:18:30;;;;;;;7.03;4.37;;;;;;;;;;10497476;28;20017;-81
2023/09/27 19:23:31;;;;;;;7.80;4.22;;;;;;;;;;10487855;28;20035;-70
2023/09/27 19:28:32;;;;;;;7.30;3.92;;;;;;;;;;10498412;28;20048;-70
2023/09/27 19:33:33;;;;;;;8.60;4.30;;;;;;;;;;10498143;28;20196;-70
2023/09/27 19:38:33;;;;;;;23.48;5.40;;;;;;;;;;10500617;28;20320;-70
2023/09/27 19:43:33;;;;;;;23.20;6.35;;;;;;;;;;10500637;28;20418;-70
2023/09/27 19:48:42;;;;;;;16.13;3.63;;;;;;;;;;10501031;28;20028;-69
2023/09/27 19:53:43;;;;;;;7.20;3.97;;;;;;;;;;10500469;28;20040;-70
2023/09/27 19:58:43;;;;;;;12.93;4.00;;;;;;;;;;10499811;28;20009;-70
2023/09/27 20:03:43;;;;;;;11.15;4.32;;;;;;;;;;10499868;28;20023;-70
2023/09/27 20:08:43;;;;;;;9.73;3.72;;;;;;;;;;10499809;28;20052;-69
2023/09/27 20:13:44;;;;;;;6.50;3.55;;;;;;;;;;10498963;28;20031;-69
2023/09/27 20:18:44;;;;;;;11.80;4.00;;;;;;;;;;10499608;28;20223;-69
2023/09/27 20:23:44;;;;;;;10.05;4.25;;;;;;;;;;10498952;28;20016;-69
2023/09/27 20:28:44;;;;;;;12.68;4.22;;;;;;;;;;10499079;28;20283;-69
2023/09/27 20:33:45;;;;;;;6.53;3.65;;;;;;;;;;10498319;28;20038;-69
2023/09/27 20:38:45;;;;;;;14.63;5.53;;;;;;;;;;10499040;28;20214;-69
2023/09/27 20:43:45;;;;;;;5.45;3.65;;;;;;;;;;10498306;28;20320;-69
2023/09/27 20:48:47;;;;;;;10.50;4.43;;;;;;;;;;10498520;28;20073;-69
2023/09/27 20:53:47;;;;;;;12.20;4.07;;;;;;;;;;10502527;28;20016;-70
2023/09/27 20:58:48;;;;;;;14.18;3.50;;;;;;;;;;10497648;28;20016;-70
2023/09/27 21:03:48;;;;;;;22.80;5.07;;;;;;;;;;10497377;28;20028;-70
2023/09/27 21:08:48;;;;;;;8.82;2.80;;;;;;;;;;10497237;28;20028;-69
2023/09/27 21:13:48;;;;;;;14.05;3.63;;;;;;;;;;10478974;28;20032;-69
2023/09/27 21:18:50;;;;;;;9.25;3.50;;;;;;;;;;10496551;28;20076;-69
2023/09/27 21:23:54;;;;;;;15.40;4.00;;;;;;;;;;10496639;28;20024;-70
2023/09/27 21:28:55;;;;;;;7.43;3.83;;;;;;;;;;10497708;28;20339;-69
2023/09/27 21:33:55;;;;;;;5.97;3.07;;;;;;;;;;10496225;28;20035;-69
2023/09/27 21:38:55;;;;;;;7.30;3.20;;;;;;;;;;10495346;28;20004;-70
2023/09/27 21:43:56;;;;;;;9.82;3.75;;;;;;;;;;10496243;28;20070;-70
2023/09/27 21:48:56;;;;;;;10.77;3.05;;;;;;;;;;10495512;28;20028;-69
2023/09/27 21:53:56;;;;;;;10.10;4.22;;;;;;;;;;10495713;28;20048;-69
2023/09/27 21:58:56;;;;;;;10.82;3.80;;;;;;;;;;10495785;28;20027;-70
2023/09/27 22:03:57;;;;;;;10.77;3.67;;;;;;;;;;10466416;28;20391;-70
2023/09/27 22:08:58;;;;;;;6.95;3.67;;;;;;;;;;10496341;22;20566;-82
2023/09/27 22:14:04;;;;;;;11.57;5.22;;;;;;;;;;10405711;28;20488;-81
2023/09/27 22:19:11;;;;;;;11.02;3.30;;;;;;;;;;10420674;28;20463;-76
2023/09/27 22:24:12;;;;;;;8.00;3.40;;;;;;;;;;10406467;28;20021;-84
2023/09/27 22:29:14;;;;;;;8.45;3.22;;;;;;;;;;10434973;28;20025;-85
2023/09/27 22:34:36;;;;;;;20.58;7.15;;;;;;;;;;10409330;28;20462;-86
2023/09/27 22:39:40;;;;;;;7.57;3.53;;;;;;;;;;10409236;28;20045;-82
2023/09/27 22:44:44;;;;;;;14.50;4.20;;;;;;;;;;10416837;28;20079;-81
2023/09/27 22:49:44;;;;;;;14.45;4.60;;;;;;;;;;10431460;28;20090;-81
2023/09/27 22:54:46;;;;;;;12.85;4.45;;;;;;;;;;10442733;28;20032;-81
2023/09/27 22:59:47;;;;;;;8.05;3.58;;;;;;;;;;10447977;28;20076;-81
2023/09/27 23:04:51;;;;;;;9.32;3.70;;;;;;;;;;10429129;28;20028;-80
2023/09/27 23:10:02;;;;;;;11.13;3.58;;;;;;;;;;10452947;28;20143;-82
2023/09/27 23:20:05;;;;;;;11.80;3.90;;;;;;;;;;10445252;28;20035;-82
2023/09/27 23:30:26;;;;;;;8.40;3.88;;;;;;;;;;10392344;28;20040;-80
2023/09/27 23:35:29;;;;;;;9.43;3.92;;;;;;;;;;10428550;28;20542;-75
2023/09/27 23:40:32;;;;;;;12.52;4.28;;;;;;;;;;10426829;28;20024;-80
2023/09/27 23:45:34;;;;;;;9.25;3.28;;;;;;;;;;10426406;28;20028;-78
2023/09/27 23:50:36;;;;;;;8.80;3.38;;;;;;;;;;10413949;28;20052;-81
2023/09/27 23:55:40;;;;;;;7.65;3.90;;;;;;;;;;10430066;28;20042;-83
